Bourton on the Water, United Kingdom
Current Conditions -  °F | °C
As of 9:50 PM on Tuesday 21 Oct 2014 (Local Time) from EGVN Reporting Station
Clear Clear  
Wind Chill: 41°   Ceiling: Unl
Heat Index: 46°   Visibility: 6mi
Dew Point: 36°   Wind: 10mph
Humidity: 66%   Direction: 280°W
Pressure: 30.12"   Gusts: NA
Location:  51.87°N, 1.75°W
Report Text: EGVN 212050Z 28009KT CAVOK 08/02 Q1020 NOSIG
Loading
Personal Weather Stations






























Interactive Weather Map New forecast layout! Learn more

10-Day Weather Forecast

Advertisements
Track Severe Weather on mobile